sensor_id;sensor_type;location;lat;lon;timestamp;P1;durP1;ratioP1;P2;durP2;ratioP2
11024;SDS011;22890;51.820;8.682;2023-09-30T00:00:10;7.37;;;2.43;;
11024;SDS011;22890;51.820;8.682;2023-09-30T00:02:38;2.90;;;2.30;;
11024;SDS011;22890;51.820;8.682;2023-09-30T00:05:05;6.00;;;2.30;;
11024;SDS011;22890;51.820;8.682;2023-09-30T00:07:32;8.40;;;2.63;;
11024;SDS011;22890;51.820;8.682;2023-09-30T00:10:00;8.60;;;3.20;;
11024;SDS011;22890;51.820;8.682;2023-09-30T00:12:27;5.30;;;2.20;;
11024;SDS011;22890;51.820;8.682;2023-09-30T00:14:54;3.17;;;2.10;;
11024;SDS011;22890;51.820;8.682;2023-09-30T00:17:21;8.27;;;2.33;;
11024;SDS011;22890;51.820;8.682;2023-09-30T00:19:48;7.83;;;2.60;;
11024;SDS011;22890;51.820;8.682;2023-09-30T00:22:16;8.40;;;2.43;;
11024;SDS011;22890;51.820;8.682;2023-09-30T00:24:43;5.37;;;2.40;;
11024;SDS011;22890;51.820;8.682;2023-09-30T00:27:10;6.10;;;2.30;;
11024;SDS011;22890;51.820;8.682;2023-09-30T00:29:38;6.60;;;2.40;;
11024;SDS011;22890;51.820;8.682;2023-09-30T00:32:05;6.57;;;2.40;;
11024;SDS011;22890;51.820;8.682;2023-09-30T00:34:35;5.30;;;2.20;;
11024;SDS011;22890;51.820;8.682;2023-09-30T00:37:03;5.90;;;2.13;;
11024;SDS011;22890;51.820;8.682;2023-09-30T00:39:31;5.90;;;2.60;;
11024;SDS011;22890;51.820;8.682;2023-09-30T00:41:59;4.97;;;2.13;;
11024;SDS011;22890;51.820;8.682;2023-09-30T00:44:27;4.57;;;2.40;;
11024;SDS011;22890;51.820;8.682;2023-09-30T00:46:54;4.73;;;2.47;;
11024;SDS011;22890;51.820;8.682;2023-09-30T00:49:25;5.90;;;2.30;;
11024;SDS011;22890;51.820;8.682;2023-09-30T00:51:52;7.70;;;3.20;;
11024;SDS011;22890;51.820;8.682;2023-09-30T00:54:21;7.70;;;2.20;;
11024;SDS011;22890;51.820;8.682;2023-09-30T00:56:48;8.20;;;2.30;;
11024;SDS011;22890;51.820;8.682;2023-09-30T00:59:16;2.40;;;1.70;;
11024;SDS011;22890;51.820;8.682;2023-09-30T01:01:44;3.97;;;2.17;;
11024;SDS011;22890;51.820;8.682;2023-09-30T01:04:13;6.93;;;2.30;;
11024;SDS011;22890;51.820;8.682;2023-09-30T01:06:41;3.70;;;1.60;;
11024;SDS011;22890;51.820;8.682;2023-09-30T01:09:09;4.10;;;1.43;;
11024;SDS011;22890;51.820;8.682;2023-09-30T01:11:36;2.60;;;1.23;;
11024;SDS011;22890;51.820;8.682;2023-09-30T01:14:03;1.73;;;1.33;;
11024;SDS011;22890;51.820;8.682;2023-09-30T01:16:30;4.40;;;1.63;;
11024;SDS011;22890;51.820;8.682;2023-09-30T01:19:00;3.87;;;1.77;;
11024;SDS011;22890;51.820;8.682;2023-09-30T01:21:27;2.50;;;1.97;;
11024;SDS011;22890;51.820;8.682;2023-09-30T01:23:54;3.77;;;1.50;;
11024;SDS011;22890;51.820;8.682;2023-09-30T01:26:22;6.83;;;2.23;;
11024;SDS011;22890;51.820;8.682;2023-09-30T01:28:49;2.70;;;1.90;;
11024;SDS011;22890;51.820;8.682;2023-09-30T01:31:16;4.03;;;2.03;;
11024;SDS011;22890;51.820;8.682;2023-09-30T01:33:43;8.30;;;2.00;;
11024;SDS011;22890;51.820;8.682;2023-09-30T01:36:10;5.70;;;1.90;;
11024;SDS011;22890;51.820;8.682;2023-09-30T01:38:37;3.50;;;1.93;;
11024;SDS011;22890;51.820;8.682;2023-09-30T01:41:05;2.37;;;1.77;;
11024;SDS011;22890;51.820;8.682;2023-09-30T01:43:34;4.30;;;2.00;;
11024;SDS011;22890;51.820;8.682;2023-09-30T01:46:02;5.07;;;1.90;;
11024;SDS011;22890;51.820;8.682;2023-09-30T01:48:31;6.33;;;1.80;;
11024;SDS011;22890;51.820;8.682;2023-09-30T01:50:59;2.53;;;1.73;;
11024;SDS011;22890;51.820;8.682;2023-09-30T01:53:26;4.00;;;1.80;;
11024;SDS011;22890;51.820;8.682;2023-09-30T01:55:53;4.33;;;2.17;;
11024;SDS011;22890;51.820;8.682;2023-09-30T01:58:19;3.97;;;2.10;;
11024;SDS011;22890;51.820;8.682;2023-09-30T02:00:47;3.77;;;2.20;;
11024;SDS011;22890;51.820;8.682;2023-09-30T02:03:14;3.20;;;1.57;;
11024;SDS011;22890;51.820;8.682;2023-09-30T02:05:42;2.40;;;1.80;;
11024;SDS011;22890;51.820;8.682;2023-09-30T02:08:09;3.27;;;1.50;;
11024;SDS011;22890;51.820;8.682;2023-09-30T02:10:36;3.77;;;2.00;;
11024;SDS011;22890;51.820;8.682;2023-09-30T02:13:03;5.13;;;1.70;;
11024;SDS011;22890;51.820;8.682;2023-09-30T02:15:33;4.10;;;1.70;;
11024;SDS011;22890;51.820;8.682;2023-09-30T02:18:00;3.43;;;1.73;;
11024;SDS011;22890;51.820;8.682;2023-09-30T02:20:27;3.03;;;1.90;;
11024;SDS011;22890;51.820;8.682;2023-09-30T02:22:57;6.50;;;2.67;;
11024;SDS011;22890;51.820;8.682;2023-09-30T02:25:25;5.97;;;2.00;;
11024;SDS011;22890;51.820;8.682;2023-09-30T02:27:52;4.83;;;2.07;;
11024;SDS011;22890;51.820;8.682;2023-09-30T02:30:19;4.20;;;3.03;;
11024;SDS011;22890;51.820;8.682;2023-09-30T02:32:47;8.87;;;2.10;;
11024;SDS011;22890;51.820;8.682;2023-09-30T02:35:14;3.40;;;2.07;;
11024;SDS011;22890;51.820;8.682;2023-09-30T02:37:42;7.20;;;1.93;;
11024;SDS011;22890;51.820;8.682;2023-09-30T02:40:09;11.00;;;2.30;;
11024;SDS011;22890;51.820;8.682;2023-09-30T02:42:37;2.57;;;2.10;;
11024;SDS011;22890;51.820;8.682;2023-09-30T02:45:05;7.00;;;2.13;;
11024;SDS011;22890;51.820;8.682;2023-09-30T02:47:35;3.77;;;2.10;;
11024;SDS011;22890;51.820;8.682;2023-09-30T02:50:04;7.03;;;2.37;;
11024;SDS011;22890;51.820;8.682;2023-09-30T02:52:32;3.93;;;2.50;;
11024;SDS011;22890;51.820;8.682;2023-09-30T02:55:00;4.87;;;2.33;;
11024;SDS011;22890;51.820;8.682;2023-09-30T02:57:28;5.87;;;2.20;;
11024;SDS011;22890;51.820;8.682;2023-09-30T02:59:57;4.47;;;2.23;;
11024;SDS011;22890;51.820;8.682;2023-09-30T03:02:27;6.63;;;2.10;;
11024;SDS011;22890;51.820;8.682;2023-09-30T03:04:55;5.83;;;2.00;;
11024;SDS011;22890;51.820;8.682;2023-09-30T03:07:24;6.10;;;2.50;;
11024;SDS011;22890;51.820;8.682;2023-09-30T03:09:52;4.90;;;2.63;;
11024;SDS011;22890;51.820;8.682;2023-09-30T03:12:20;6.00;;;1.97;;
11024;SDS011;22890;51.820;8.682;2023-09-30T03:14:47;2.70;;;1.93;;
11024;SDS011;22890;51.820;8.682;2023-09-30T03:17:14;3.50;;;2.20;;
11024;SDS011;22890;51.820;8.682;2023-09-30T03:19:42;5.23;;;2.40;;
11024;SDS011;22890;51.820;8.682;2023-09-30T03:22:09;5.87;;;2.17;;
11024;SDS011;22890;51.820;8.682;2023-09-30T03:24:38;4.53;;;1.77;;
11024;SDS011;22890;51.820;8.682;2023-09-30T03:27:06;4.43;;;2.30;;
11024;SDS011;22890;51.820;8.682;2023-09-30T03:29:37;3.73;;;2.13;;
11024;SDS011;22890;51.820;8.682;2023-09-30T03:32:05;7.47;;;2.63;;
11024;SDS011;22890;51.820;8.682;2023-09-30T03:34:33;5.00;;;2.40;;
11024;SDS011;22890;51.820;8.682;2023-09-30T03:37:03;8.00;;;2.13;;
11024;SDS011;22890;51.820;8.682;2023-09-30T03:39:34;7.10;;;2.40;;
11024;SDS011;22890;51.820;8.682;2023-09-30T03:42:01;5.03;;;2.63;;
11024;SDS011;22890;51.820;8.682;2023-09-30T03:44:29;6.80;;;2.57;;
11024;SDS011;22890;51.820;8.682;2023-09-30T03:46:56;10.23;;;2.20;;
11024;SDS011;22890;51.820;8.682;2023-09-30T03:49:25;6.73;;;2.33;;
11024;SDS011;22890;51.820;8.682;2023-09-30T03:51:55;4.13;;;2.37;;
11024;SDS011;22890;51.820;8.682;2023-09-30T03:54:22;5.33;;;2.70;;
11024;SDS011;22890;51.820;8.682;2023-09-30T03:56:49;3.77;;;2.43;;
11024;SDS011;22890;51.820;8.682;2023-09-30T03:59:16;7.23;;;2.20;;
11024;SDS011;22890;51.820;8.682;2023-09-30T04:01:45;7.87;;;2.60;;
11024;SDS011;22890;51.820;8.682;2023-09-30T04:04:13;6.80;;;2.60;;
11024;SDS011;22890;51.820;8.682;2023-09-30T04:06:40;4.20;;;2.53;;
11024;SDS011;22890;51.820;8.682;2023-09-30T04:09:07;6.00;;;2.60;;
11024;SDS011;22890;51.820;8.682;2023-09-30T04:11:37;4.23;;;2.77;;
11024;SDS011;22890;51.820;8.682;2023-09-30T04:14:05;7.70;;;2.33;;
11024;SDS011;22890;51.820;8.682;2023-09-30T04:16:34;4.83;;;2.13;;
11024;SDS011;22890;51.820;8.682;2023-09-30T04:19:01;7.23;;;2.53;;
11024;SDS011;22890;51.820;8.682;2023-09-30T04:21:28;2.80;;;2.50;;
11024;SDS011;22890;51.820;8.682;2023-09-30T04:23:56;7.53;;;3.23;;
11024;SDS011;22890;51.820;8.682;2023-09-30T04:26:24;4.97;;;2.00;;
11024;SDS011;22890;51.820;8.682;2023-09-30T04:28:52;4.70;;;2.30;;
11024;SDS011;22890;51.820;8.682;2023-09-30T04:31:22;8.53;;;3.10;;
11024;SDS011;22890;51.820;8.682;2023-09-30T04:33:50;7.43;;;2.53;;
11024;SDS011;22890;51.820;8.682;2023-09-30T04:36:18;7.43;;;3.10;;
11024;SDS011;22890;51.820;8.682;2023-09-30T04:38:45;5.67;;;2.30;;
11024;SDS011;22890;51.820;8.682;2023-09-30T04:41:13;3.80;;;2.20;;
11024;SDS011;22890;51.820;8.682;2023-09-30T04:43:42;3.00;;;1.97;;
11024;SDS011;22890;51.820;8.682;2023-09-30T04:46:09;2.97;;;2.03;;
11024;SDS011;22890;51.820;8.682;2023-09-30T04:48:39;4.23;;;2.23;;
11024;SDS011;22890;51.820;8.682;2023-09-30T04:51:07;4.40;;;2.40;;
11024;SDS011;22890;51.820;8.682;2023-09-30T04:53:35;4.67;;;2.60;;
11024;SDS011;22890;51.820;8.682;2023-09-30T04:56:03;7.13;;;2.87;;
11024;SDS011;22890;51.820;8.682;2023-09-30T04:58:30;3.87;;;2.20;;
11024;SDS011;22890;51.820;8.682;2023-09-30T05:00:57;3.87;;;2.10;;
11024;SDS011;22890;51.820;8.682;2023-09-30T05:03:25;6.07;;;2.53;;
11024;SDS011;22890;51.820;8.682;2023-09-30T05:05:52;4.30;;;2.30;;
11024;SDS011;22890;51.820;8.682;2023-09-30T05:08:22;11.37;;;2.30;;
11024;SDS011;22890;51.820;8.682;2023-09-30T05:10:50;4.83;;;2.30;;
11024;SDS011;22890;51.820;8.682;2023-09-30T05:13:21;3.37;;;2.00;;
11024;SDS011;22890;51.820;8.682;2023-09-30T05:15:49;5.30;;;2.50;;
11024;SDS011;22890;51.820;8.682;2023-09-30T05:18:17;4.87;;;2.73;;
11024;SDS011;22890;51.820;8.682;2023-09-30T05:20:45;3.77;;;2.57;;
11024;SDS011;22890;51.820;8.682;2023-09-30T05:23:12;2.93;;;2.30;;
11024;SDS011;22890;51.820;8.682;2023-09-30T05:25:40;8.67;;;2.40;;
11024;SDS011;22890;51.820;8.682;2023-09-30T05:28:09;5.60;;;3.43;;
11024;SDS011;22890;51.820;8.682;2023-09-30T05:30:37;3.70;;;2.13;;
11024;SDS011;22890;51.820;8.682;2023-09-30T05:33:05;3.23;;;2.10;;
11024;SDS011;22890;51.820;8.682;2023-09-30T05:35:33;4.73;;;2.60;;
11024;SDS011;22890;51.820;8.682;2023-09-30T05:38:00;5.93;;;2.90;;
11024;SDS011;22890;51.820;8.682;2023-09-30T05:40:28;4.63;;;2.87;;
11024;SDS011;22890;51.820;8.682;2023-09-30T05:42:57;6.87;;;2.90;;
11024;SDS011;22890;51.820;8.682;2023-09-30T05:45:26;6.70;;;2.83;;
11024;SDS011;22890;51.820;8.682;2023-09-30T05:47:54;9.23;;;2.63;;
11024;SDS011;22890;51.820;8.682;2023-09-30T05:50:23;3.80;;;2.60;;
11024;SDS011;22890;51.820;8.682;2023-09-30T05:52:54;4.50;;;2.47;;
11024;SDS011;22890;51.820;8.682;2023-09-30T05:55:22;5.77;;;2.93;;
11024;SDS011;22890;51.820;8.682;2023-09-30T05:57:52;6.10;;;2.73;;
11024;SDS011;22890;51.820;8.682;2023-09-30T06:00:20;4.77;;;3.23;;
11024;SDS011;22890;51.820;8.682;2023-09-30T06:02:56;6.20;;;3.17;;
11024;SDS011;22890;51.820;8.682;2023-09-30T06:05:24;4.97;;;2.73;;
11024;SDS011;22890;51.820;8.682;2023-09-30T06:07:56;6.50;;;2.70;;
11024;SDS011;22890;51.820;8.682;2023-09-30T06:10:23;5.40;;;3.00;;
11024;SDS011;22890;51.820;8.682;2023-09-30T06:12:52;5.23;;;2.80;;
11024;SDS011;22890;51.820;8.682;2023-09-30T06:15:24;10.80;;;2.77;;
11024;SDS011;22890;51.820;8.682;2023-09-30T06:17:55;4.23;;;2.30;;
11024;SDS011;22890;51.820;8.682;2023-09-30T06:20:23;8.03;;;2.83;;
11024;SDS011;22890;51.820;8.682;2023-09-30T06:22:53;6.13;;;3.23;;
11024;SDS011;22890;51.820;8.682;2023-09-30T06:25:20;9.57;;;3.80;;
11024;SDS011;22890;51.820;8.682;2023-09-30T06:27:50;6.77;;;3.83;;
11024;SDS011;22890;51.820;8.682;2023-09-30T06:30:17;5.13;;;3.60;;
11024;SDS011;22890;51.820;8.682;2023-09-30T06:32:47;7.60;;;3.23;;
11024;SDS011;22890;51.820;8.682;2023-09-30T06:35:14;8.67;;;3.10;;
11024;SDS011;22890;51.820;8.682;2023-09-30T06:37:41;5.40;;;3.47;;
11024;SDS011;22890;51.820;8.682;2023-09-30T06:40:11;7.57;;;3.43;;
11024;SDS011;22890;51.820;8.682;2023-09-30T06:42:39;5.90;;;3.50;;
11024;SDS011;22890;51.820;8.682;2023-09-30T06:45:07;5.97;;;3.40;;
11024;SDS011;22890;51.820;8.682;2023-09-30T06:47:36;6.47;;;3.87;;
11024;SDS011;22890;51.820;8.682;2023-09-30T06:50:05;8.40;;;4.70;;
11024;SDS011;22890;51.820;8.682;2023-09-30T06:52:35;9.33;;;3.83;;
11024;SDS011;22890;51.820;8.682;2023-09-30T06:55:03;8.90;;;3.57;;
11024;SDS011;22890;51.820;8.682;2023-09-30T06:57:31;7.40;;;4.13;;
11024;SDS011;22890;51.820;8.682;2023-09-30T06:59:58;6.30;;;4.10;;
11024;SDS011;22890;51.820;8.682;2023-09-30T07:02:25;6.80;;;4.07;;
11024;SDS011;22890;51.820;8.682;2023-09-30T07:04:53;6.17;;;3.53;;
11024;SDS011;22890;51.820;8.682;2023-09-30T07:07:20;10.13;;;3.83;;
11024;SDS011;22890;51.820;8.682;2023-09-30T07:09:47;7.37;;;4.00;;
11024;SDS011;22890;51.820;8.682;2023-09-30T07:12:15;7.00;;;4.20;;
11024;SDS011;22890;51.820;8.682;2023-09-30T07:14:42;5.93;;;3.63;;
11024;SDS011;22890;51.820;8.682;2023-09-30T07:17:09;5.97;;;4.10;;
11024;SDS011;22890;51.820;8.682;2023-09-30T07:19:36;8.93;;;4.17;;
11024;SDS011;22890;51.820;8.682;2023-09-30T07:22:04;7.20;;;3.87;;
11024;SDS011;22890;51.820;8.682;2023-09-30T07:24:31;9.47;;;4.30;;
11024;SDS011;22890;51.820;8.682;2023-09-30T07:26:58;8.63;;;4.03;;
11024;SDS011;22890;51.820;8.682;2023-09-30T07:29:28;8.50;;;3.90;;
11024;SDS011;22890;51.820;8.682;2023-09-30T07:31:55;8.20;;;4.37;;
11024;SDS011;22890;51.820;8.682;2023-09-30T07:34:22;10.47;;;4.63;;
11024;SDS011;22890;51.820;8.682;2023-09-30T07:36:50;17.03;;;5.10;;
11024;SDS011;22890;51.820;8.682;2023-09-30T07:39:18;12.13;;;5.03;;
11024;SDS011;22890;51.820;8.682;2023-09-30T07:41:45;14.17;;;4.90;;
11024;SDS011;22890;51.820;8.682;2023-09-30T07:44:12;17.90;;;5.37;;
11024;SDS011;22890;51.820;8.682;2023-09-30T07:46:40;14.53;;;5.10;;
11024;SDS011;22890;51.820;8.682;2023-09-30T07:49:08;15.30;;;5.50;;
11024;SDS011;22890;51.820;8.682;2023-09-30T07:51:36;17.37;;;5.80;;
11024;SDS011;22890;51.820;8.682;2023-09-30T07:54:05;11.87;;;5.27;;
11024;SDS011;22890;51.820;8.682;2023-09-30T07:56:52;16.73;;;5.20;;
11024;SDS011;22890;51.820;8.682;2023-09-30T07:59:21;17.30;;;5.53;;
11024;SDS011;22890;51.820;8.682;2023-09-30T08:01:48;16.40;;;5.10;;
11024;SDS011;22890;51.820;8.682;2023-09-30T08:04:16;13.60;;;5.13;;
11024;SDS011;22890;51.820;8.682;2023-09-30T08:06:44;11.27;;;6.10;;
11024;SDS011;22890;51.820;8.682;2023-09-30T08:09:14;18.20;;;5.90;;
11024;SDS011;22890;51.820;8.682;2023-09-30T08:11:42;13.00;;;6.40;;
11024;SDS011;22890;51.820;8.682;2023-09-30T08:14:09;22.77;;;6.67;;
11024;SDS011;22890;51.820;8.682;2023-09-30T08:16:37;13.20;;;5.13;;
11024;SDS011;22890;51.820;8.682;2023-09-30T08:19:04;18.50;;;5.90;;
11024;SDS011;22890;51.820;8.682;2023-09-30T08:21:31;20.73;;;6.53;;
11024;SDS011;22890;51.820;8.682;2023-09-30T08:23:59;18.03;;;5.87;;
11024;SDS011;22890;51.820;8.682;2023-09-30T08:26:26;17.33;;;6.17;;
11024;SDS011;22890;51.820;8.682;2023-09-30T08:28:53;21.13;;;6.50;;
11024;SDS011;22890;51.820;8.682;2023-09-30T08:31:20;16.77;;;5.77;;
11024;SDS011;22890;51.820;8.682;2023-09-30T08:33:48;17.27;;;7.07;;
11024;SDS011;22890;51.820;8.682;2023-09-30T08:36:15;15.83;;;6.43;;
11024;SDS011;22890;51.820;8.682;2023-09-30T08:38:42;16.73;;;6.87;;
11024;SDS011;22890;51.820;8.682;2023-09-30T08:41:11;18.60;;;6.67;;
11024;SDS011;22890;51.820;8.682;2023-09-30T08:43:45;15.17;;;6.03;;
11024;SDS011;22890;51.820;8.682;2023-09-30T08:46:13;11.67;;;5.97;;
11024;SDS011;22890;51.820;8.682;2023-09-30T08:48:41;23.70;;;6.87;;
11024;SDS011;22890;51.820;8.682;2023-09-30T08:51:09;13.73;;;5.33;;
11024;SDS011;22890;51.820;8.682;2023-09-30T08:53:37;14.17;;;5.47;;
11024;SDS011;22890;51.820;8.682;2023-09-30T08:56:04;14.50;;;5.57;;
11024;SDS011;22890;51.820;8.682;2023-09-30T08:58:36;14.53;;;5.83;;
11024;SDS011;22890;51.820;8.682;2023-09-30T09:01:03;13.10;;;6.30;;
11024;SDS011;22890;51.820;8.682;2023-09-30T09:03:33;13.87;;;5.43;;
11024;SDS011;22890;51.820;8.682;2023-09-30T09:06:02;15.50;;;6.03;;
11024;SDS011;22890;51.820;8.682;2023-09-30T09:08:29;13.67;;;5.93;;
11024;SDS011;22890;51.820;8.682;2023-09-30T09:10:59;18.90;;;5.50;;
11024;SDS011;22890;51.820;8.682;2023-09-30T09:13:29;17.13;;;5.97;;
11024;SDS011;22890;51.820;8.682;2023-09-30T09:16:11;11.43;;;5.80;;
11024;SDS011;22890;51.820;8.682;2023-09-30T09:18:39;14.67;;;6.37;;
11024;SDS011;22890;51.820;8.682;2023-09-30T09:21:22;19.07;;;6.30;;
11024;SDS011;22890;51.820;8.682;2023-09-30T09:23:53;14.77;;;6.17;;
11024;SDS011;22890;51.820;8.682;2023-09-30T09:26:24;15.07;;;5.87;;
11024;SDS011;22890;51.820;8.682;2023-09-30T09:28:55;14.87;;;6.17;;
11024;SDS011;22890;51.820;8.682;2023-09-30T09:31:24;11.47;;;5.53;;
11024;SDS011;22890;51.820;8.682;2023-09-30T09:33:52;12.80;;;6.43;;
11024;SDS011;22890;51.820;8.682;2023-09-30T09:36:19;18.10;;;5.93;;
11024;SDS011;22890;51.820;8.682;2023-09-30T09:38:50;10.10;;;5.37;;
11024;SDS011;22890;51.820;8.682;2023-09-30T09:41:20;12.10;;;6.00;;
11024;SDS011;22890;51.820;8.682;2023-09-30T09:43:48;11.53;;;5.13;;
11024;SDS011;22890;51.820;8.682;2023-09-30T09:46:17;10.27;;;4.97;;
11024;SDS011;22890;51.820;8.682;2023-09-30T09:48:45;9.00;;;4.93;;
11024;SDS011;22890;51.820;8.682;2023-09-30T09:51:13;16.83;;;6.27;;
11024;SDS011;22890;51.820;8.682;2023-09-30T09:53:41;11.67;;;5.63;;
11024;SDS011;22890;51.820;8.682;2023-09-30T09:56:09;11.13;;;5.67;;
11024;SDS011;22890;51.820;8.682;2023-09-30T09:58:39;12.90;;;5.63;;
11024;SDS011;22890;51.820;8.682;2023-09-30T10:01:08;14.63;;;5.07;;
11024;SDS011;22890;51.820;8.682;2023-09-30T10:03:37;13.33;;;5.37;;
11024;SDS011;22890;51.820;8.682;2023-09-30T10:06:05;13.93;;;4.50;;
11024;SDS011;22890;51.820;8.682;2023-09-30T10:08:35;10.97;;;4.50;;
11024;SDS011;22890;51.820;8.682;2023-09-30T10:11:03;10.50;;;5.47;;
11024;SDS011;22890;51.820;8.682;2023-09-30T10:19:07;12.50;;;4.10;;
11024;SDS011;22890;51.820;8.682;2023-09-30T10:21:34;7.27;;;4.43;;
11024;SDS011;22890;51.820;8.682;2023-09-30T10:27:27;6.43;;;3.83;;
11024;SDS011;22890;51.820;8.682;2023-09-30T10:29:41;9.07;;;3.63;;
11024;SDS011;22890;51.820;8.682;2023-09-30T10:32:08;8.47;;;3.63;;
11024;SDS011;22890;51.820;8.682;2023-09-30T10:34:35;7.50;;;3.43;;
11024;SDS011;22890;51.820;8.682;2023-09-30T10:39:53;12.00;;;3.97;;
11024;SDS011;22890;51.820;8.682;2023-09-30T10:42:42;8.67;;;3.20;;
11024;SDS011;22890;51.820;8.682;2023-09-30T10:47:56;8.03;;;2.13;;
11024;SDS011;22890;51.820;8.682;2023-09-30T10:53:14;5.40;;;2.13;;
11024;SDS011;22890;51.820;8.682;2023-09-30T10:55:41;5.70;;;1.90;;
11024;SDS011;22890;51.820;8.682;2023-09-30T10:58:10;6.67;;;1.90;;
11024;SDS011;22890;51.820;8.682;2023-09-30T11:00:37;6.63;;;2.53;;
11024;SDS011;22890;51.820;8.682;2023-09-30T11:03:04;8.20;;;2.47;;
11024;SDS011;22890;51.820;8.682;2023-09-30T11:05:32;5.70;;;2.40;;
11024;SDS011;22890;51.820;8.682;2023-09-30T11:08:21;5.50;;;2.40;;
11024;SDS011;22890;51.820;8.682;2023-09-30T11:10:49;5.10;;;1.73;;
11024;SDS011;22890;51.820;8.682;2023-09-30T11:13:17;5.83;;;2.33;;
11024;SDS011;22890;51.820;8.682;2023-09-30T11:15:44;5.63;;;2.80;;
11024;SDS011;22890;51.820;8.682;2023-09-30T11:18:15;5.80;;;2.03;;
11024;SDS011;22890;51.820;8.682;2023-09-30T11:20:43;4.90;;;2.20;;
11024;SDS011;22890;51.820;8.682;2023-09-30T11:23:10;4.77;;;2.20;;
11024;SDS011;22890;51.820;8.682;2023-09-30T11:25:38;7.10;;;2.57;;
11024;SDS011;22890;51.820;8.682;2023-09-30T11:28:12;5.03;;;2.17;;
11024;SDS011;22890;51.820;8.682;2023-09-30T11:30:53;5.03;;;2.17;;
11024;SDS011;22890;51.820;8.682;2023-09-30T11:33:20;4.97;;;2.47;;
11024;SDS011;22890;51.820;8.682;2023-09-30T11:38:25;5.67;;;2.30;;
11024;SDS011;22890;51.820;8.682;2023-09-30T11:41:01;4.00;;;1.97;;
11024;SDS011;22890;51.820;8.682;2023-09-30T11:43:30;4.60;;;2.30;;
11024;SDS011;22890;51.820;8.682;2023-09-30T11:46:10;3.37;;;2.20;;
11024;SDS011;22890;51.820;8.682;2023-09-30T11:48:38;7.07;;;2.70;;
11024;SDS011;22890;51.820;8.682;2023-09-30T11:51:06;7.90;;;2.97;;
11024;SDS011;22890;51.820;8.682;2023-09-30T11:53:34;5.73;;;2.30;;
11024;SDS011;22890;51.820;8.682;2023-09-30T11:56:02;9.20;;;3.10;;
11024;SDS011;22890;51.820;8.682;2023-09-30T11:58:29;6.77;;;2.10;;
11024;SDS011;22890;51.820;8.682;2023-09-30T12:00:58;6.60;;;2.60;;
11024;SDS011;22890;51.820;8.682;2023-09-30T12:03:26;4.80;;;2.37;;
11024;SDS011;22890;51.820;8.682;2023-09-30T12:05:53;5.37;;;2.90;;
11024;SDS011;22890;51.820;8.682;2023-09-30T12:08:24;5.33;;;2.97;;
11024;SDS011;22890;51.820;8.682;2023-09-30T12:10:51;5.67;;;2.90;;
11024;SDS011;22890;51.820;8.682;2023-09-30T12:13:18;10.07;;;3.13;;
11024;SDS011;22890;51.820;8.682;2023-09-30T12:15:46;7.37;;;3.63;;
11024;SDS011;22890;51.820;8.682;2023-09-30T12:18:13;6.27;;;2.83;;
11024;SDS011;22890;51.820;8.682;2023-09-30T12:20:50;12.50;;;3.47;;
11024;SDS011;22890;51.820;8.682;2023-09-30T12:23:18;7.33;;;2.73;;
11024;SDS011;22890;51.820;8.682;2023-09-30T12:25:46;6.13;;;2.30;;
11024;SDS011;22890;51.820;8.682;2023-09-30T12:28:27;6.10;;;2.33;;
11024;SDS011;22890;51.820;8.682;2023-09-30T12:31:01;8.17;;;2.77;;
11024;SDS011;22890;51.820;8.682;2023-09-30T12:33:29;3.20;;;2.20;;
11024;SDS011;22890;51.820;8.682;2023-09-30T12:35:56;7.57;;;3.00;;
11024;SDS011;22890;51.820;8.682;2023-09-30T12:38:24;7.37;;;2.20;;
11024;SDS011;22890;51.820;8.682;2023-09-30T12:40:52;7.73;;;2.40;;
11024;SDS011;22890;51.820;8.682;2023-09-30T12:43:19;5.33;;;2.80;;
11024;SDS011;22890;51.820;8.682;2023-09-30T12:45:47;6.70;;;2.60;;
11024;SDS011;22890;51.820;8.682;2023-09-30T12:48:14;6.07;;;2.80;;
11024;SDS011;22890;51.820;8.682;2023-09-30T12:50:41;4.63;;;2.23;;
11024;SDS011;22890;51.820;8.682;2023-09-30T12:53:08;4.27;;;2.30;;
11024;SDS011;22890;51.820;8.682;2023-09-30T12:55:36;5.30;;;2.83;;
11024;SDS011;22890;51.820;8.682;2023-09-30T12:58:03;5.83;;;2.77;;
11024;SDS011;22890;51.820;8.682;2023-09-30T13:00:31;5.73;;;2.90;;
11024;SDS011;22890;51.820;8.682;2023-09-30T13:03:02;6.27;;;2.57;;
11024;SDS011;22890;51.820;8.682;2023-09-30T13:05:30;6.30;;;2.63;;
11024;SDS011;22890;51.820;8.682;2023-09-30T13:07:57;5.80;;;2.53;;
11024;SDS011;22890;51.820;8.682;2023-09-30T13:10:24;7.67;;;2.10;;
11024;SDS011;22890;51.820;8.682;2023-09-30T13:12:52;6.90;;;2.50;;
11024;SDS011;22890;51.820;8.682;2023-09-30T13:15:20;5.07;;;2.37;;
11024;SDS011;22890;51.820;8.682;2023-09-30T13:17:47;5.23;;;2.20;;
11024;SDS011;22890;51.820;8.682;2023-09-30T13:20:15;5.33;;;3.00;;
11024;SDS011;22890;51.820;8.682;2023-09-30T13:22:43;4.73;;;2.70;;
11024;SDS011;22890;51.820;8.682;2023-09-30T13:25:11;5.37;;;2.17;;
11024;SDS011;22890;51.820;8.682;2023-09-30T13:27:39;9.33;;;2.80;;
11024;SDS011;22890;51.820;8.682;2023-09-30T13:30:07;7.00;;;3.10;;
11024;SDS011;22890;51.820;8.682;2023-09-30T13:32:35;5.80;;;2.70;;
11024;SDS011;22890;51.820;8.682;2023-09-30T13:35:03;4.13;;;2.00;;
11024;SDS011;22890;51.820;8.682;2023-09-30T13:37:31;8.03;;;2.13;;
11024;SDS011;22890;51.820;8.682;2023-09-30T13:40:03;5.80;;;2.57;;
11024;SDS011;22890;51.820;8.682;2023-09-30T13:42:31;6.73;;;1.90;;
11024;SDS011;22890;51.820;8.682;2023-09-30T13:44:58;7.40;;;2.67;;
11024;SDS011;22890;51.820;8.682;2023-09-30T13:47:25;4.87;;;2.70;;
11024;SDS011;22890;51.820;8.682;2023-09-30T13:49:52;8.47;;;2.77;;
11024;SDS011;22890;51.820;8.682;2023-09-30T13:52:21;8.20;;;2.57;;
11024;SDS011;22890;51.820;8.682;2023-09-30T13:54:48;6.63;;;2.57;;
11024;SDS011;22890;51.820;8.682;2023-09-30T13:57:15;3.47;;;1.83;;
11024;SDS011;22890;51.820;8.682;2023-09-30T13:59:42;7.80;;;2.23;;
11024;SDS011;22890;51.820;8.682;2023-09-30T14:02:09;7.60;;;2.27;;
11024;SDS011;22890;51.820;8.682;2023-09-30T14:04:37;4.07;;;1.90;;
11024;SDS011;22890;51.820;8.682;2023-09-30T14:07:05;6.87;;;2.67;;
11024;SDS011;22890;51.820;8.682;2023-09-30T14:09:34;5.90;;;2.70;;
11024;SDS011;22890;51.820;8.682;2023-09-30T14:12:02;6.93;;;2.73;;
11024;SDS011;22890;51.820;8.682;2023-09-30T14:14:31;7.33;;;2.57;;
11024;SDS011;22890;51.820;8.682;2023-09-30T14:16:59;7.33;;;2.77;;
11024;SDS011;22890;51.820;8.682;2023-09-30T14:19:26;5.67;;;2.93;;
11024;SDS011;22890;51.820;8.682;2023-09-30T14:21:54;4.80;;;2.27;;
11024;SDS011;22890;51.820;8.682;2023-09-30T14:24:22;5.93;;;2.57;;
11024;SDS011;22890;51.820;8.682;2023-09-30T14:26:50;9.70;;;2.77;;
11024;SDS011;22890;51.820;8.682;2023-09-30T14:29:17;5.47;;;2.30;;
11024;SDS011;22890;51.820;8.682;2023-09-30T14:31:44;5.07;;;2.40;;
11024;SDS011;22890;51.820;8.682;2023-09-30T14:34:12;4.93;;;2.80;;
11024;SDS011;22890;51.820;8.682;2023-09-30T14:36:41;6.00;;;2.50;;
11024;SDS011;22890;51.820;8.682;2023-09-30T14:39:08;5.63;;;2.30;;
11024;SDS011;22890;51.820;8.682;2023-09-30T14:41:40;6.57;;;2.10;;
11024;SDS011;22890;51.820;8.682;2023-09-30T14:44:08;4.07;;;1.90;;
11024;SDS011;22890;51.820;8.682;2023-09-30T14:46:38;5.20;;;2.40;;
11024;SDS011;22890;51.820;8.682;2023-09-30T14:49:06;6.43;;;2.33;;
11024;SDS011;22890;51.820;8.682;2023-09-30T14:51:35;6.30;;;2.80;;
11024;SDS011;22890;51.820;8.682;2023-09-30T14:54:02;4.80;;;2.17;;
11024;SDS011;22890;51.820;8.682;2023-09-30T14:56:30;5.87;;;2.57;;
11024;SDS011;22890;51.820;8.682;2023-09-30T14:58:57;4.33;;;2.23;;
11024;SDS011;22890;51.820;8.682;2023-09-30T15:01:26;3.87;;;2.00;;
11024;SDS011;22890;51.820;8.682;2023-09-30T15:03:53;5.27;;;2.47;;
11024;SDS011;22890;51.820;8.682;2023-09-30T15:06:21;3.80;;;2.03;;
11024;SDS011;22890;51.820;8.682;2023-09-30T15:08:50;12.60;;;2.73;;
11024;SDS011;22890;51.820;8.682;2023-09-30T15:11:17;4.63;;;2.30;;